createdAt,value
2023-03-10T00:02:13.577Z,100074.16
2023-03-10T00:07:15.713Z,100068.88
2023-03-10T00:12:18.606Z,100076.38
2023-03-10T00:17:20.810Z,100079.44
2023-03-10T00:22:23.151Z,100075.53
2023-03-10T00:27:25.309Z,100074.34
2023-03-10T00:32:28.498Z,100074.28
2023-03-10T00:37:30.682Z,100054.59
2023-03-10T00:42:32.826Z,100066.94
2023-03-10T00:47:35.013Z,100069.44
2023-03-10T00:52:37.133Z,100022.47
2023-03-10T00:57:39.301Z,100019.84
2023-03-10T01:02:41.444Z,100061.06
2023-03-10T01:07:43.693Z,100054.78
2023-03-10T01:12:45.850Z,100040.16
2023-03-10T01:17:47.971Z,100035.59
2023-03-10T01:22:50.121Z,100037.28
2023-03-10T01:27:52.387Z,100025.00
2023-03-10T01:32:55.533Z,100026.25
2023-03-10T01:37:58.469Z,100027.84
2023-03-10T01:43:22.356Z,100048.44
2023-03-10T01:48:24.899Z,100022.22
2023-03-10T01:53:28.840Z,100032.91
2023-03-10T01:58:40.901Z,100021.03
2023-03-10T02:03:55.337Z,100032.44
2023-03-10T02:09:00.268Z,100035.00
2023-03-10T02:14:06.604Z,100035.31
2023-03-10T02:19:23.852Z,100031.09
2023-03-10T02:24:25.918Z,100047.56
2023-03-10T02:29:42.633Z,100049.88
2023-03-10T02:34:47.930Z,100022.38
2023-03-10T02:39:50.322Z,99988.22
2023-03-10T02:44:54.416Z,100016.09
2023-03-10T02:49:57.335Z,100040.31
2023-03-10T02:54:59.429Z,100016.25
2023-03-10T03:00:02.685Z,100022.41
2023-03-10T03:05:05.420Z,100031.22
2023-03-10T03:10:07.912Z,100032.22
2023-03-10T03:15:10.371Z,100007.25
2023-03-10T03:20:14.792Z,100016.69
2023-03-10T03:25:19.437Z,100008.91
2023-03-10T03:30:26.897Z,100009.03
2023-03-10T03:35:32.650Z,100022.41
2023-03-10T03:40:37.202Z,100014.88
2023-03-10T03:45:39.510Z,100033.63
2023-03-10T03:50:41.698Z,100028.34
2023-03-10T03:55:43.832Z,100026.69
2023-03-10T04:00:46.008Z,100047.28
2023-03-10T04:05:48.141Z,100036.19
2023-03-10T04:10:54.473Z,100026.03
2023-03-10T04:16:00.309Z,100037.94
2023-03-10T04:21:03.182Z,100018.84
2023-03-10T04:26:09.719Z,100021.00
2023-03-10T04:31:16.206Z,100002.59
2023-03-10T04:36:19.339Z,99990.44
2023-03-10T04:41:21.843Z,99984.66
2023-03-10T04:46:24.104Z,99993.56
2023-03-10T04:51:26.383Z,99966.25
2023-03-10T04:56:28.900Z,100003.31
2023-03-10T05:01:33.504Z,99977.66
2023-03-10T05:06:35.700Z,99986.44
2023-03-10T05:11:38.005Z,99989.44
2023-03-10T05:16:40.311Z,100004.00
2023-03-10T05:21:42.547Z,99996.63
2023-03-10T05:26:44.682Z,99993.03
2023-03-10T05:31:48.478Z,100011.25
2023-03-10T05:36:50.693Z,99993.16
2023-03-10T05:41:52.870Z,100029.44
2023-03-10T05:46:55.166Z,100019.81
2023-03-10T05:51:58.314Z,100015.72
2023-03-10T05:57:00.429Z,100004.81
2023-03-10T06:02:02.593Z,100014.47
2023-03-10T06:07:05.310Z,100031.81
2023-03-10T06:12:07.841Z,100012.97
2023-03-10T06:17:11.237Z,100046.28
2023-03-10T06:22:13.374Z,100039.63
2023-03-10T06:27:15.584Z,100048.53
2023-03-10T06:32:17.827Z,100030.63
2023-03-10T06:37:20.976Z,100018.47
2023-03-10T06:42:23.167Z,100017.47
2023-03-10T06:47:25.445Z,100000.66
2023-03-10T06:52:27.742Z,100017.16
2023-03-10T06:57:29.890Z,100008.31
2023-03-10T07:02:32.257Z,100019.91
2023-03-10T07:07:35.018Z,100016.47
2023-03-10T07:12:37.208Z,100012.41
2023-03-10T07:17:39.315Z,100013.09
2023-03-10T07:22:41.980Z,100008.66
2023-03-10T07:27:44.122Z,99991.97
2023-03-10T07:32:46.363Z,99992.78
2023-03-10T07:37:48.555Z,99995.84
2023-03-10T07:42:55.069Z,99994.69
2023-03-10T07:47:57.400Z,99988.53
2023-03-10T07:52:59.956Z,99984.50
2023-03-10T07:58:02.145Z,99989.75
2023-03-10T08:03:04.363Z,99993.16
2023-03-10T08:08:06.849Z,99997.06
2023-03-10T08:13:09.060Z,99967.31
2023-03-10T08:18:11.290Z,99954.84
2023-03-10T08:23:15.169Z,99987.69
2023-03-10T08:28:18.727Z,99957.09
2023-03-10T08:33:22.450Z,99980.50
2023-03-10T08:38:24.794Z,99961.41
2023-03-10T08:43:27.874Z,99954.91
2023-03-10T08:48:30.141Z,99963.06
2023-03-10T08:53:34.171Z,99951.81
2023-03-10T08:58:59.295Z,99946.28
2023-03-10T09:04:05.268Z,99942.50
2023-03-10T09:09:10.465Z,99930.66
2023-03-10T09:14:16.404Z,99938.00
2023-03-10T09:19:21.970Z,99921.00
2023-03-10T09:24:25.329Z,99932.34
2023-03-10T09:29:42.267Z,99932.59
2023-03-10T09:34:46.385Z,99931.03
2023-03-10T09:39:48.632Z,99922.28
2023-03-10T09:45:24.364Z,99932.00
2023-03-10T09:50:45.534Z,99940.56
2023-03-10T09:55:49.120Z,99923.72
2023-03-10T10:00:51.387Z,99932.19
2023-03-10T10:05:56.326Z,99932.69
2023-03-10T10:11:00.343Z,99923.19
2023-03-10T10:16:33.638Z,99927.47
2023-03-10T10:21:48.193Z,99916.56
2023-03-10T10:26:50.592Z,99907.72
2023-03-10T10:32:14.723Z,99899.75
2023-03-10T10:37:37.199Z,99882.44
2023-03-10T10:42:54.980Z,99874.13
2023-03-10T10:47:57.259Z,99855.72
2023-03-10T10:53:24.748Z,99857.91
2023-03-10T10:58:38.861Z,99828.06
2023-03-10T11:03:43.758Z,99813.28
2023-03-10T11:14:13.469Z,99789.78
2023-03-10T11:19:22.826Z,99772.66
2023-03-10T11:24:54.459Z,99775.34
2023-03-10T11:30:32.675Z,99761.13
2023-03-10T11:35:46.662Z,99741.66
2023-03-10T11:41:00.058Z,99722.97
2023-03-10T11:46:09.313Z,99727.09
2023-03-10T11:51:34.647Z,99715.25
2023-03-10T11:56:38.609Z,99701.22
2023-03-10T12:01:59.219Z,99697.38
2023-03-10T12:07:04.923Z,99696.84
2023-03-10T12:12:08.677Z,99671.13
2023-03-10T12:17:15.872Z,99674.34
2023-03-10T12:22:37.645Z,99668.47
2023-03-10T12:28:22.697Z,99662.75
2023-03-10T12:33:31.549Z,99650.78
2023-03-10T12:38:43.008Z,99652.19
2023-03-10T12:43:47.921Z,99627.72
2023-03-10T12:49:07.033Z,99635.38
2023-03-10T12:54:20.998Z,99614.69
2023-03-10T12:59:50.620Z,99598.84
2023-03-10T13:05:05.637Z,99597.03
2023-03-10T13:10:19.304Z,99583.19
2023-03-10T13:15:28.001Z,99572.16
2023-03-10T13:20:30.791Z,99553.94
2023-03-10T13:25:37.080Z,99567.00
2023-03-10T13:30:39.515Z,99546.31
2023-03-10T13:35:42.456Z,99543.66
2023-03-10T13:40:48.405Z,99534.44
2023-03-10T13:46:01.018Z,99550.50
2023-03-10T13:51:09.406Z,99541.78
2023-03-10T13:56:27.565Z,99555.66
2023-03-10T14:01:34.956Z,99536.31
2023-03-10T14:06:38.637Z,99517.78
2023-03-10T14:11:44.950Z,99514.13
2023-03-10T14:16:53.874Z,99491.47
2023-03-10T14:22:01.648Z,99480.97
2023-03-10T14:27:04.069Z,99477.34
2023-03-10T14:32:08.441Z,99483.38
2023-03-10T14:37:10.571Z,99492.34
2023-03-10T14:42:26.466Z,99464.41
2023-03-10T14:47:28.869Z,99461.88
2023-03-10T14:52:31.281Z,99462.94
2023-03-10T14:57:33.479Z,99468.38
2023-03-10T15:02:35.697Z,99452.00
2023-03-10T15:07:37.897Z,99445.34
2023-03-10T15:12:44.096Z,99455.53
2023-03-10T15:17:46.722Z,99454.66
2023-03-10T15:22:49.934Z,99447.84
2023-03-10T15:27:53.298Z,99440.78
2023-03-10T15:32:55.767Z,99440.97
2023-03-10T15:37:58.897Z,99418.91
2023-03-10T15:43:01.794Z,99416.34
2023-03-10T15:48:04.165Z,99416.59
2023-03-10T15:53:06.365Z,99406.28
2023-03-10T15:58:10.502Z,99405.63
2023-03-10T16:03:18.236Z,99394.03
2023-03-10T16:08:20.732Z,99379.50
2023-03-10T16:13:24.326Z,99389.19
2023-03-10T16:18:27.605Z,99386.25
2023-03-10T16:23:32.186Z,99397.44
2023-03-10T16:28:35.626Z,99396.94
2023-03-10T16:33:38.099Z,99386.66
2023-03-10T16:38:40.660Z,99370.16
2023-03-10T16:43:43.292Z,99381.84
2023-03-10T16:48:47.865Z,99367.25
2023-03-10T16:53:52.778Z,99361.97
2023-03-10T16:58:56.799Z,99376.78
2023-03-10T17:03:59.686Z,99351.50
2023-03-10T17:09:05.952Z,99346.66
2023-03-10T17:14:12.761Z,99351.38
2023-03-10T17:19:20.524Z,99358.47
2023-03-10T17:24:23.796Z,99348.34
2023-03-10T17:29:26.010Z,99338.50
2023-03-10T17:34:31.356Z,99325.41
2023-03-10T17:39:35.489Z,99324.81
2023-03-10T17:44:38.231Z,99309.59
2023-03-10T17:49:42.189Z,99308.34
2023-03-10T17:54:45.376Z,99316.88
2023-03-10T17:59:47.583Z,99313.50
2023-03-10T18:04:50.126Z,99313.09
2023-03-10T18:09:52.309Z,99279.78
2023-03-10T18:14:54.667Z,99285.00
2023-03-10T18:19:57.092Z,99274.28
2023-03-10T18:25:02.000Z,99273.59
2023-03-10T18:30:05.377Z,99270.66
2023-03-10T18:35:09.096Z,99268.03
2023-03-10T18:40:18.756Z,99269.28
2023-03-10T18:45:20.873Z,99284.56
2023-03-10T18:50:23.092Z,99284.53
2023-03-10T18:55:25.320Z,99250.16
2023-03-10T19:00:27.938Z,99269.22
2023-03-10T19:05:30.263Z,99277.56
2023-03-10T19:10:32.466Z,99284.47
2023-03-10T19:15:35.168Z,99270.56
2023-03-10T19:20:38.102Z,99285.25
2023-03-10T19:25:40.331Z,99257.19
2023-03-10T19:30:45.398Z,99284.00
2023-03-10T19:35:47.768Z,99283.47
2023-03-10T19:40:55.246Z,99286.16
2023-03-10T19:46:02.042Z,99271.63
2023-03-10T19:51:06.106Z,99285.56
2023-03-10T19:56:09.205Z,99282.03
2023-03-10T20:01:21.050Z,99280.78
2023-03-10T20:06:23.827Z,99247.13
2023-03-10T20:11:26.259Z,99232.53
2023-03-10T20:16:28.744Z,99239.50
2023-03-10T20:21:31.110Z,99258.53
2023-03-10T20:26:33.501Z,99241.75
2023-03-10T20:31:37.383Z,99250.38
2023-03-10T20:36:40.120Z,99246.94
2023-03-10T20:41:45.173Z,99227.31
2023-03-10T20:46:47.373Z,99240.94
2023-03-10T20:51:49.607Z,99258.13
2023-03-10T20:56:51.965Z,99253.03
2023-03-10T21:01:54.210Z,99238.91
2023-03-10T21:06:56.412Z,99247.06
2023-03-10T21:11:58.574Z,99246.66
2023-03-10T21:17:01.966Z,99229.06
2023-03-10T21:22:05.107Z,99226.53
2023-03-10T21:27:09.571Z,99208.72
2023-03-10T21:32:12.663Z,99203.03
2023-03-10T21:37:15.719Z,99202.31
2023-03-10T21:42:17.856Z,99215.66
2023-03-10T21:47:20.836Z,99189.16
2023-03-10T21:52:23.109Z,99167.72
2023-03-10T21:57:26.069Z,99144.88
2023-03-10T22:02:30.834Z,99136.16
2023-03-10T22:07:33.847Z,99143.22
2023-03-10T22:12:37.948Z,99147.91
2023-03-10T22:17:40.179Z,99137.38
2023-03-10T22:22:42.375Z,99137.81
2023-03-10T22:28:07.222Z,99114.06
2023-03-10T22:33:09.637Z,99090.28
2023-03-10T22:38:13.967Z,99093.28
2023-03-10T22:43:17.221Z,99083.31
2023-03-10T22:48:20.179Z,99082.66
2023-03-10T22:53:22.387Z,99103.59
2023-03-10T22:58:24.587Z,99106.44
2023-03-10T23:03:27.044Z,99102.47
2023-03-10T23:08:30.174Z,99088.78
2023-03-10T23:13:32.274Z,99106.69
2023-03-10T23:18:34.655Z,99119.06
2023-03-10T23:23:36.984Z,99103.75
2023-03-10T23:28:40.059Z,99112.00
2023-03-10T23:33:42.955Z,99136.19
2023-03-10T23:38:45.257Z,99138.75
2023-03-10T23:43:47.524Z,99146.56
2023-03-10T23:48:50.040Z,99180.09
2023-03-10T23:53:53.902Z,99180.31
2023-03-10T23:58:59.200Z,99193.06
